sensor_id;sensor_type;location;lat;lon;timestamp;temperature;humidity
27266;DHT22;14766;51.380;13.762;2022-11-23T00:01:24;6.30;71.60
27266;DHT22;14766;51.380;13.762;2022-11-23T00:03:54;6.30;71.60
27266;DHT22;14766;51.380;13.762;2022-11-23T00:06:22;6.30;71.60
27266;DHT22;14766;51.380;13.762;2022-11-23T00:08:49;6.30;71.50
27266;DHT22;14766;51.380;13.762;2022-11-23T00:11:18;6.30;71.40
27266;DHT22;14766;51.380;13.762;2022-11-23T00:13:45;6.30;71.50
27266;DHT22;14766;51.380;13.762;2022-11-23T00:16:18;6.30;71.50
27266;DHT22;14766;51.380;13.762;2022-11-23T00:18:45;6.30;71.40
27266;DHT22;14766;51.380;13.762;2022-11-23T00:21:17;6.30;71.40
27266;DHT22;14766;51.380;13.762;2022-11-23T00:23:44;6.20;71.40
27266;DHT22;14766;51.380;13.762;2022-11-23T00:26:13;6.20;71.50
27266;DHT22;14766;51.380;13.762;2022-11-23T00:28:40;6.20;71.50
27266;DHT22;14766;51.380;13.762;2022-11-23T00:31:13;6.20;71.70
27266;DHT22;14766;51.380;13.762;2022-11-23T00:33:42;6.20;71.70
27266;DHT22;14766;51.380;13.762;2022-11-23T00:36:13;6.20;71.80
27266;DHT22;14766;51.380;13.762;2022-11-23T00:38:42;6.10;71.90
27266;DHT22;14766;51.380;13.762;2022-11-23T00:41:12;6.10;71.80
27266;DHT22;14766;51.380;13.762;2022-11-23T00:43:41;6.10;72.80
27266;DHT22;14766;51.380;13.762;2022-11-23T00:46:17;6.10;72.00
27266;DHT22;14766;51.380;13.762;2022-11-23T00:48:47;6.10;72.10
27266;DHT22;14766;51.380;13.762;2022-11-23T00:51:19;6.10;72.20
27266;DHT22;14766;51.380;13.762;2022-11-23T00:53:48;6.10;72.20
27266;DHT22;14766;51.380;13.762;2022-11-23T00:56:15;6.00;72.30
27266;DHT22;14766;51.380;13.762;2022-11-23T00:58:49;6.00;72.30
27266;DHT22;14766;51.380;13.762;2022-11-23T01:01:18;6.10;72.40
27266;DHT22;14766;51.380;13.762;2022-11-23T01:03:48;6.00;72.30
27266;DHT22;14766;51.380;13.762;2022-11-23T01:06:18;6.00;72.30
27266;DHT22;14766;51.380;13.762;2022-11-23T01:08:56;6.00;72.30
27266;DHT22;14766;51.380;13.762;2022-11-23T01:11:26;6.00;72.30
27266;DHT22;14766;51.380;13.762;2022-11-23T01:13:54;6.00;72.50
27266;DHT22;14766;51.380;13.762;2022-11-23T01:16:24;6.00;72.50
27266;DHT22;14766;51.380;13.762;2022-11-23T01:18:56;6.00;72.50
27266;DHT22;14766;51.380;13.762;2022-11-23T01:21:25;6.00;72.50
27266;DHT22;14766;51.380;13.762;2022-11-23T01:23:53;6.00;72.50
27266;DHT22;14766;51.380;13.762;2022-11-23T01:26:21;6.00;72.60
27266;DHT22;14766;51.380;13.762;2022-11-23T01:28:50;5.90;72.50
27266;DHT22;14766;51.380;13.762;2022-11-23T01:31:22;6.00;72.50
27266;DHT22;14766;51.380;13.762;2022-11-23T01:33:54;6.00;72.50
27266;DHT22;14766;51.380;13.762;2022-11-23T01:36:24;5.90;72.50
27266;DHT22;14766;51.380;13.762;2022-11-23T01:38:52;5.90;72.50
27266;DHT22;14766;51.380;13.762;2022-11-23T01:41:29;5.90;72.50
27266;DHT22;14766;51.380;13.762;2022-11-23T01:43:56;5.90;72.60
27266;DHT22;14766;51.380;13.762;2022-11-23T01:46:23;5.90;72.70
27266;DHT22;14766;51.380;13.762;2022-11-23T01:53:52;5.90;72.70
27266;DHT22;14766;51.380;13.762;2022-11-23T01:56:25;5.90;72.70
27266;DHT22;14766;51.380;13.762;2022-11-23T01:58:56;5.90;72.70
27266;DHT22;14766;51.380;13.762;2022-11-23T02:01:26;5.80;72.50
27266;DHT22;14766;51.380;13.762;2022-11-23T02:03:58;5.80;72.60
27266;DHT22;14766;51.380;13.762;2022-11-23T02:06:28;5.80;72.50
27266;DHT22;14766;51.380;13.762;2022-11-23T02:09:00;5.80;72.50
27266;DHT22;14766;51.380;13.762;2022-11-23T02:11:27;5.80;72.50
27266;DHT22;14766;51.380;13.762;2022-11-23T02:13:55;5.80;72.40
27266;DHT22;14766;51.380;13.762;2022-11-23T02:16:23;5.80;72.30
27266;DHT22;14766;51.380;13.762;2022-11-23T02:18:51;5.80;72.20
27266;DHT22;14766;51.380;13.762;2022-11-23T02:21:21;5.80;72.10
27266;DHT22;14766;51.380;13.762;2022-11-23T02:24:02;5.80;72.10
27266;DHT22;14766;51.380;13.762;2022-11-23T02:26:34;5.80;72.10
27266;DHT22;14766;51.380;13.762;2022-11-23T02:29:19;5.80;73.10
27266;DHT22;14766;51.380;13.762;2022-11-23T02:31:47;5.80;72.20
27266;DHT22;14766;51.380;13.762;2022-11-23T02:34:16;5.80;72.30
27266;DHT22;14766;51.380;13.762;2022-11-23T02:36:49;5.80;72.20
27266;DHT22;14766;51.380;13.762;2022-11-23T02:40:02;5.70;72.10
27266;DHT22;14766;51.380;13.762;2022-11-23T02:42:10;5.80;72.30
27266;DHT22;14766;51.380;13.762;2022-11-23T02:45:04;5.70;72.40
27266;DHT22;14766;51.380;13.762;2022-11-23T02:47:36;5.80;72.50
27266;DHT22;14766;51.380;13.762;2022-11-23T02:50:03;5.70;72.70
27266;DHT22;14766;51.380;13.762;2022-11-23T02:52:31;5.70;72.70
27266;DHT22;14766;51.380;13.762;2022-11-23T02:54:58;5.70;72.90
27266;DHT22;14766;51.380;13.762;2022-11-23T02:57:25;5.70;73.00
27266;DHT22;14766;51.380;13.762;2022-11-23T02:59:53;5.70;73.00
27266;DHT22;14766;51.380;13.762;2022-11-23T03:02:21;5.70;73.10
27266;DHT22;14766;51.380;13.762;2022-11-23T03:04:48;5.70;73.00
27266;DHT22;14766;51.380;13.762;2022-11-23T03:07:20;5.70;73.00
27266;DHT22;14766;51.380;13.762;2022-11-23T03:09:48;5.70;73.40
27266;DHT22;14766;51.380;13.762;2022-11-23T03:12:17;5.70;73.40
27266;DHT22;14766;51.380;13.762;2022-11-23T03:14:44;5.70;73.40
27266;DHT22;14766;51.380;13.762;2022-11-23T03:17:11;5.70;73.50
27266;DHT22;14766;51.380;13.762;2022-11-23T03:19:40;5.70;73.60
27266;DHT22;14766;51.380;13.762;2022-11-23T03:22:09;5.70;73.70
27266;DHT22;14766;51.380;13.762;2022-11-23T03:24:36;5.80;73.80
27266;DHT22;14766;51.380;13.762;2022-11-23T03:27:05;5.70;73.60
27266;DHT22;14766;51.380;13.762;2022-11-23T03:29:33;5.70;73.60
27266;DHT22;14766;51.380;13.762;2022-11-23T03:32:08;5.70;73.60
27266;DHT22;14766;51.380;13.762;2022-11-23T03:34:36;5.70;73.40
27266;DHT22;14766;51.380;13.762;2022-11-23T03:37:03;5.80;73.40
27266;DHT22;14766;51.380;13.762;2022-11-23T03:39:31;5.80;73.30
27266;DHT22;14766;51.380;13.762;2022-11-23T03:42:07;5.80;73.40
27266;DHT22;14766;51.380;13.762;2022-11-23T03:44:36;5.80;73.30
27266;DHT22;14766;51.380;13.762;2022-11-23T03:47:04;5.80;73.20
27266;DHT22;14766;51.380;13.762;2022-11-23T03:49:33;5.80;73.10
27266;DHT22;14766;51.380;13.762;2022-11-23T03:52:00;5.80;73.10
27266;DHT22;14766;51.380;13.762;2022-11-23T03:54:27;5.80;73.10
27266;DHT22;14766;51.380;13.762;2022-11-23T03:56:54;5.80;73.10
27266;DHT22;14766;51.380;13.762;2022-11-23T03:59:21;5.80;73.00
27266;DHT22;14766;51.380;13.762;2022-11-23T04:01:49;5.80;73.10
27266;DHT22;14766;51.380;13.762;2022-11-23T04:04:21;5.80;73.10
27266;DHT22;14766;51.380;13.762;2022-11-23T04:07:08;5.80;73.10
27266;DHT22;14766;51.380;13.762;2022-11-23T04:09:45;5.80;73.20
27266;DHT22;14766;51.380;13.762;2022-11-23T04:12:26;5.80;73.30
27266;DHT22;14766;51.380;13.762;2022-11-23T04:14:55;5.80;73.30
27266;DHT22;14766;51.380;13.762;2022-11-23T04:17:23;5.90;73.40
27266;DHT22;14766;51.380;13.762;2022-11-23T04:19:50;5.80;73.40
27266;DHT22;14766;51.380;13.762;2022-11-23T04:22:17;5.90;73.60
27266;DHT22;14766;51.380;13.762;2022-11-23T04:24:45;5.90;73.50
27266;DHT22;14766;51.380;13.762;2022-11-23T04:27:12;5.90;73.40
27266;DHT22;14766;51.380;13.762;2022-11-23T04:29:41;5.90;73.40
27266;DHT22;14766;51.380;13.762;2022-11-23T04:32:08;5.90;73.20
27266;DHT22;14766;51.380;13.762;2022-11-23T04:34:36;5.90;73.00
27266;DHT22;14766;51.380;13.762;2022-11-23T04:37:05;6.00;72.90
27266;DHT22;14766;51.380;13.762;2022-11-23T04:39:39;6.00;72.90
27266;DHT22;14766;51.380;13.762;2022-11-23T04:42:18;6.00;72.80
27266;DHT22;14766;51.380;13.762;2022-11-23T04:44:53;6.00;72.60
27266;DHT22;14766;51.380;13.762;2022-11-23T04:47:20;6.00;72.60
27266;DHT22;14766;51.380;13.762;2022-11-23T04:49:47;6.00;72.50
27266;DHT22;14766;51.380;13.762;2022-11-23T04:52:15;6.10;72.60
27266;DHT22;14766;51.380;13.762;2022-11-23T04:54:47;6.10;72.50
27266;DHT22;14766;51.380;13.762;2022-11-23T04:57:15;6.10;72.50
27266;DHT22;14766;51.380;13.762;2022-11-23T04:59:44;6.10;72.40
27266;DHT22;14766;51.380;13.762;2022-11-23T05:02:11;6.10;72.40
27266;DHT22;14766;51.380;13.762;2022-11-23T05:04:52;6.10;72.20
27266;DHT22;14766;51.380;13.762;2022-11-23T05:07:22;6.10;72.10
27266;DHT22;14766;51.380;13.762;2022-11-23T05:09:55;6.10;72.00
27266;DHT22;14766;51.380;13.762;2022-11-23T05:12:23;6.10;71.90
27266;DHT22;14766;51.380;13.762;2022-11-23T05:14:50;6.10;71.90
27266;DHT22;14766;51.380;13.762;2022-11-23T05:17:23;6.10;71.90
27266;DHT22;14766;51.380;13.762;2022-11-23T05:19:52;6.10;71.90
27266;DHT22;14766;51.380;13.762;2022-11-23T05:22:21;6.10;71.90
27266;DHT22;14766;51.380;13.762;2022-11-23T05:24:48;6.00;71.80
27266;DHT22;14766;51.380;13.762;2022-11-23T05:27:19;6.00;71.80
27266;DHT22;14766;51.380;13.762;2022-11-23T05:29:46;6.00;72.60
27266;DHT22;14766;51.380;13.762;2022-11-23T05:32:13;6.00;71.80
27266;DHT22;14766;51.380;13.762;2022-11-23T05:34:41;6.00;71.90
27266;DHT22;14766;51.380;13.762;2022-11-23T05:37:11;6.00;71.90
27266;DHT22;14766;51.380;13.762;2022-11-23T05:39:47;5.90;71.90
27266;DHT22;14766;51.380;13.762;2022-11-23T05:42:15;5.90;71.90
27266;DHT22;14766;51.380;13.762;2022-11-23T05:44:45;5.90;71.90
27266;DHT22;14766;51.380;13.762;2022-11-23T05:47:19;5.90;71.80
27266;DHT22;14766;51.380;13.762;2022-11-23T05:49:46;5.90;71.90
27266;DHT22;14766;51.380;13.762;2022-11-23T05:52:16;5.90;71.80
27266;DHT22;14766;51.380;13.762;2022-11-23T05:54:45;5.90;71.90
27266;DHT22;14766;51.380;13.762;2022-11-23T05:57:14;5.90;71.80
27266;DHT22;14766;51.380;13.762;2022-11-23T05:59:43;5.90;71.70
27266;DHT22;14766;51.380;13.762;2022-11-23T06:02:16;5.90;71.70
27266;DHT22;14766;51.380;13.762;2022-11-23T06:04:46;5.80;71.60
27266;DHT22;14766;51.380;13.762;2022-11-23T06:07:17;5.80;71.70
27266;DHT22;14766;51.380;13.762;2022-11-23T06:10:12;5.80;71.70
27266;DHT22;14766;51.380;13.762;2022-11-23T06:12:44;5.80;71.90
27266;DHT22;14766;51.380;13.762;2022-11-23T06:15:18;5.80;71.90
27266;DHT22;14766;51.380;13.762;2022-11-23T06:17:47;5.80;72.00
27266;DHT22;14766;51.380;13.762;2022-11-23T06:20:19;5.80;72.00
27266;DHT22;14766;51.380;13.762;2022-11-23T06:23:00;5.80;72.00
27266;DHT22;14766;51.380;13.762;2022-11-23T06:25:28;5.80;72.00
27266;DHT22;14766;51.380;13.762;2022-11-23T06:28:04;5.80;72.00
27266;DHT22;14766;51.380;13.762;2022-11-23T06:30:39;5.80;72.10
27266;DHT22;14766;51.380;13.762;2022-11-23T06:33:06;5.80;72.10
27266;DHT22;14766;51.380;13.762;2022-11-23T06:35:56;5.80;72.20
27266;DHT22;14766;51.380;13.762;2022-11-23T06:38:28;5.80;72.20
27266;DHT22;14766;51.380;13.762;2022-11-23T06:41:03;5.80;72.30
27266;DHT22;14766;51.380;13.762;2022-11-23T06:43:31;5.80;72.30
27266;DHT22;14766;51.380;13.762;2022-11-23T06:46:02;5.80;72.40
27266;DHT22;14766;51.380;13.762;2022-11-23T06:48:31;5.80;72.60
27266;DHT22;14766;51.380;13.762;2022-11-23T06:51:00;5.80;73.00
27266;DHT22;14766;51.380;13.762;2022-11-23T06:53:29;5.80;73.40
27266;DHT22;14766;51.380;13.762;2022-11-23T06:56:01;5.80;73.90
27266;DHT22;14766;51.380;13.762;2022-11-23T06:58:30;5.80;73.90
27266;DHT22;14766;51.380;13.762;2022-11-23T07:01:02;5.90;73.90
27266;DHT22;14766;51.380;13.762;2022-11-23T07:03:36;5.90;74.00
27266;DHT22;14766;51.380;13.762;2022-11-23T07:06:14;5.90;73.90
27266;DHT22;14766;51.380;13.762;2022-11-23T07:08:41;6.00;74.00
27266;DHT22;14766;51.380;13.762;2022-11-23T07:11:26;6.00;73.90
27266;DHT22;14766;51.380;13.762;2022-11-23T07:13:54;6.10;74.10
27266;DHT22;14766;51.380;13.762;2022-11-23T07:16:24;6.10;74.10
27266;DHT22;14766;51.380;13.762;2022-11-23T07:18:53;6.10;74.20
27266;DHT22;14766;51.380;13.762;2022-11-23T07:21:20;6.20;75.20
27266;DHT22;14766;51.380;13.762;2022-11-23T07:23:48;6.20;75.30
27266;DHT22;14766;51.380;13.762;2022-11-23T07:26:15;6.30;74.60
27266;DHT22;14766;51.380;13.762;2022-11-23T07:28:43;6.30;74.70
27266;DHT22;14766;51.380;13.762;2022-11-23T07:31:11;6.40;75.00
27266;DHT22;14766;51.380;13.762;2022-11-23T07:33:45;6.50;74.80
27266;DHT22;14766;51.380;13.762;2022-11-23T07:36:13;6.60;74.30
27266;DHT22;14766;51.380;13.762;2022-11-23T07:38:42;6.60;73.90
27266;DHT22;14766;51.380;13.762;2022-11-23T07:41:11;6.70;73.60
27266;DHT22;14766;51.380;13.762;2022-11-23T07:43:59;6.80;73.40
27266;DHT22;14766;51.380;13.762;2022-11-23T07:46:26;6.80;73.10
27266;DHT22;14766;51.380;13.762;2022-11-23T07:48:53;6.80;73.00
27266;DHT22;14766;51.380;13.762;2022-11-23T07:51:24;6.90;72.90
27266;DHT22;14766;51.380;13.762;2022-11-23T07:53:51;6.90;72.70
27266;DHT22;14766;51.380;13.762;2022-11-23T07:56:19;6.90;72.60
27266;DHT22;14766;51.380;13.762;2022-11-23T07:58:46;6.90;72.40
27266;DHT22;14766;51.380;13.762;2022-11-23T08:01:15;6.90;72.40
27266;DHT22;14766;51.380;13.762;2022-11-23T08:03:45;6.90;72.30
27266;DHT22;14766;51.380;13.762;2022-11-23T08:06:13;6.90;72.20
27266;DHT22;14766;51.380;13.762;2022-11-23T08:08:40;6.90;72.20
27266;DHT22;14766;51.380;13.762;2022-11-23T08:11:08;6.90;72.20
27266;DHT22;14766;51.380;13.762;2022-11-23T08:13:36;6.90;72.20
27266;DHT22;14766;51.380;13.762;2022-11-23T08:16:03;6.90;72.20
27266;DHT22;14766;51.380;13.762;2022-11-23T08:18:30;6.90;72.10
27266;DHT22;14766;51.380;13.762;2022-11-23T08:21:01;6.90;72.20
27266;DHT22;14766;51.380;13.762;2022-11-23T08:23:28;7.00;72.50
27266;DHT22;14766;51.380;13.762;2022-11-23T08:25:55;7.10;72.60
27266;DHT22;14766;51.380;13.762;2022-11-23T08:28:23;7.10;72.40
27266;DHT22;14766;51.380;13.762;2022-11-23T08:30:49;7.20;72.20
27266;DHT22;14766;51.380;13.762;2022-11-23T08:33:16;7.30;72.10
27266;DHT22;14766;51.380;13.762;2022-11-23T08:35:43;7.40;72.30
27266;DHT22;14766;51.380;13.762;2022-11-23T08:38:10;7.50;72.70
27266;DHT22;14766;51.380;13.762;2022-11-23T08:40:38;7.60;72.80
27266;DHT22;14766;51.380;13.762;2022-11-23T08:43:05;7.80;72.50
27266;DHT22;14766;51.380;13.762;2022-11-23T08:45:32;8.00;71.50
27266;DHT22;14766;51.380;13.762;2022-11-23T08:48:01;8.20;71.00
27266;DHT22;14766;51.380;13.762;2022-11-23T08:50:30;8.30;70.80
27266;DHT22;14766;51.380;13.762;2022-11-23T08:53:00;8.50;70.20
27266;DHT22;14766;51.380;13.762;2022-11-23T08:55:27;8.70;70.10
27266;DHT22;14766;51.380;13.762;2022-11-23T08:57:58;8.90;69.90
27266;DHT22;14766;51.380;13.762;2022-11-23T09:00:25;9.20;69.90
27266;DHT22;14766;51.380;13.762;2022-11-23T09:02:53;9.60;69.30
27266;DHT22;14766;51.380;13.762;2022-11-23T09:05:20;9.90;68.30
27266;DHT22;14766;51.380;13.762;2022-11-23T09:07:47;10.20;66.90
27266;DHT22;14766;51.380;13.762;2022-11-23T09:10:15;10.50;65.70
27266;DHT22;14766;51.380;13.762;2022-11-23T09:12:46;10.60;65.40
27266;DHT22;14766;51.380;13.762;2022-11-23T09:15:13;10.80;63.80
27266;DHT22;14766;51.380;13.762;2022-11-23T09:17:41;10.90;64.60
27266;DHT22;14766;51.380;13.762;2022-11-23T09:20:08;10.90;62.20
27266;DHT22;14766;51.380;13.762;2022-11-23T09:22:37;11.00;61.20
27266;DHT22;14766;51.380;13.762;2022-11-23T09:25:04;11.00;61.10
27266;DHT22;14766;51.380;13.762;2022-11-23T09:27:33;11.00;62.00
27266;DHT22;14766;51.380;13.762;2022-11-23T09:30:00;11.00;61.60
27266;DHT22;14766;51.380;13.762;2022-11-23T09:32:27;10.90;60.80
27266;DHT22;14766;51.380;13.762;2022-11-23T09:34:55;10.90;61.10
27266;DHT22;14766;51.380;13.762;2022-11-23T09:37:22;10.80;60.60
27266;DHT22;14766;51.380;13.762;2022-11-23T09:39:49;10.70;60.60
27266;DHT22;14766;51.380;13.762;2022-11-23T09:42:40;10.60;59.90
27266;DHT22;14766;51.380;13.762;2022-11-23T09:45:33;10.50;60.40
27266;DHT22;14766;51.380;13.762;2022-11-23T09:50:48;10.20;60.60
27266;DHT22;14766;51.380;13.762;2022-11-23T09:53:45;10.10;61.10
27266;DHT22;14766;51.380;13.762;2022-11-23T09:56:26;9.90;61.60
27266;DHT22;14766;51.380;13.762;2022-11-23T09:58:57;9.90;62.10
27266;DHT22;14766;51.380;13.762;2022-11-23T10:01:25;9.80;62.40
27266;DHT22;14766;51.380;13.762;2022-11-23T10:03:57;9.70;62.50
27266;DHT22;14766;51.380;13.762;2022-11-23T10:06:28;9.60;62.80
27266;DHT22;14766;51.380;13.762;2022-11-23T10:09:04;9.50;62.90
27266;DHT22;14766;51.380;13.762;2022-11-23T10:14:53;9.40;63.60
27266;DHT22;14766;51.380;13.762;2022-11-23T10:20:41;9.30;64.30
27266;DHT22;14766;51.380;13.762;2022-11-23T10:25:58;9.30;65.00
27266;DHT22;14766;51.380;13.762;2022-11-23T10:28:30;9.20;65.20
27266;DHT22;14766;51.380;13.762;2022-11-23T10:31:19;9.20;65.20
27266;DHT22;14766;51.380;13.762;2022-11-23T10:36:37;9.20;65.50
27266;DHT22;14766;51.380;13.762;2022-11-23T10:39:25;9.20;65.70
27266;DHT22;14766;51.380;13.762;2022-11-23T10:41:55;9.20;66.00
27266;DHT22;14766;51.380;13.762;2022-11-23T10:46:58;9.30;66.10
27266;DHT22;14766;51.380;13.762;2022-11-23T10:49:30;9.40;66.40
27266;DHT22;14766;51.380;13.762;2022-11-23T10:52:04;9.50;66.30
27266;DHT22;14766;51.380;13.762;2022-11-23T10:57:30;9.60;66.60
27266;DHT22;14766;51.380;13.762;2022-11-23T11:02:28;9.90;67.20
27266;DHT22;14766;51.380;13.762;2022-11-23T11:05:36;10.00;66.90
27266;DHT22;14766;51.380;13.762;2022-11-23T11:08:29;10.30;66.40
27266;DHT22;14766;51.380;13.762;2022-11-23T11:13:39;10.90;65.20
27266;DHT22;14766;51.380;13.762;2022-11-23T11:18:44;11.40;62.80
27266;DHT22;14766;51.380;13.762;2022-11-23T11:21:31;11.60;62.40
27266;DHT22;14766;51.380;13.762;2022-11-23T11:24:04;11.90;63.20
27266;DHT22;14766;51.380;13.762;2022-11-23T11:26:33;12.20;61.10
27266;DHT22;14766;51.380;13.762;2022-11-23T11:29:04;12.40;59.90
27266;DHT22;14766;51.380;13.762;2022-11-23T11:34:54;12.80;59.70
27266;DHT22;14766;51.380;13.762;2022-11-23T11:37:34;12.90;59.20
27266;DHT22;14766;51.380;13.762;2022-11-23T11:45:45;13.10;57.80
27266;DHT22;14766;51.380;13.762;2022-11-23T11:48:50;13.10;57.60
27266;DHT22;14766;51.380;13.762;2022-11-23T11:51:24;13.00;57.30
27266;DHT22;14766;51.380;13.762;2022-11-23T11:54:10;13.00;57.30
27266;DHT22;14766;51.380;13.762;2022-11-23T11:56:45;12.90;58.30
27266;DHT22;14766;51.380;13.762;2022-11-23T11:59:21;12.90;58.50
27266;DHT22;14766;51.380;13.762;2022-11-23T12:07:51;12.70;58.10
27266;DHT22;14766;51.380;13.762;2022-11-23T12:12:44;12.50;57.50
27266;DHT22;14766;51.380;13.762;2022-11-23T12:15:19;12.40;58.20
27266;DHT22;14766;51.380;13.762;2022-11-23T12:20:54;12.30;58.50
27266;DHT22;14766;51.380;13.762;2022-11-23T12:26:01;12.20;58.50
27266;DHT22;14766;51.380;13.762;2022-11-23T12:39:53;11.80;59.50
27266;DHT22;14766;51.380;13.762;2022-11-23T12:42:45;11.70;59.70
27266;DHT22;14766;51.380;13.762;2022-11-23T12:45:20;11.70;60.60
27266;DHT22;14766;51.380;13.762;2022-11-23T12:51:10;11.60;60.10
27266;DHT22;14766;51.380;13.762;2022-11-23T12:53:47;11.50;60.30
27266;DHT22;14766;51.380;13.762;2022-11-23T12:56:25;11.50;60.50
27266;DHT22;14766;51.380;13.762;2022-11-23T12:58:57;11.50;60.90
27266;DHT22;14766;51.380;13.762;2022-11-23T13:01:35;11.40;61.00
27266;DHT22;14766;51.380;13.762;2022-11-23T13:07:08;11.40;61.00
27266;DHT22;14766;51.380;13.762;2022-11-23T13:13:03;11.30;61.20
27266;DHT22;14766;51.380;13.762;2022-11-23T13:23:45;11.20;62.50
27266;DHT22;14766;51.380;13.762;2022-11-23T13:26:17;11.10;62.60
27266;DHT22;14766;51.380;13.762;2022-11-23T13:28:46;11.10;62.70
27266;DHT22;14766;51.380;13.762;2022-11-23T13:33:43;11.00;63.00
27266;DHT22;14766;51.380;13.762;2022-11-23T13:36:12;11.00;63.10
27266;DHT22;14766;51.380;13.762;2022-11-23T13:42:25;10.90;63.10
27266;DHT22;14766;51.380;13.762;2022-11-23T13:45:12;10.90;63.00
27266;DHT22;14766;51.380;13.762;2022-11-23T13:48:02;10.80;63.10
27266;DHT22;14766;51.380;13.762;2022-11-23T13:50:31;10.80;63.20
27266;DHT22;14766;51.380;13.762;2022-11-23T13:52:59;10.80;63.40
27266;DHT22;14766;51.380;13.762;2022-11-23T14:00:55;10.70;63.60
27266;DHT22;14766;51.380;13.762;2022-11-23T14:09:18;10.60;63.90
27266;DHT22;14766;51.380;13.762;2022-11-23T14:11:53;10.50;63.90
27266;DHT22;14766;51.380;13.762;2022-11-23T14:14:25;10.50;64.10
27266;DHT22;14766;51.380;13.762;2022-11-23T14:19:58;10.40;64.10
27266;DHT22;14766;51.380;13.762;2022-11-23T14:30:45;10.30;64.30
27266;DHT22;14766;51.380;13.762;2022-11-23T14:36:14;10.20;64.60
27266;DHT22;14766;51.380;13.762;2022-11-23T14:38:51;10.20;64.70
27266;DHT22;14766;51.380;13.762;2022-11-23T14:41:25;10.10;64.80
27266;DHT22;14766;51.380;13.762;2022-11-23T14:43:54;10.10;64.70
27266;DHT22;14766;51.380;13.762;2022-11-23T14:46:23;10.00;64.70
27266;DHT22;14766;51.380;13.762;2022-11-23T14:49:05;10.00;64.80
27266;DHT22;14766;51.380;13.762;2022-11-23T14:51:34;9.90;64.90
27266;DHT22;14766;51.380;13.762;2022-11-23T14:54:08;9.90;65.10
27266;DHT22;14766;51.380;13.762;2022-11-23T14:56:46;9.80;65.30
27266;DHT22;14766;51.380;13.762;2022-11-23T14:59:19;9.80;65.30
27266;DHT22;14766;51.380;13.762;2022-11-23T15:01:50;9.70;65.40
27266;DHT22;14766;51.380;13.762;2022-11-23T15:06:55;9.60;65.50
27266;DHT22;14766;51.380;13.762;2022-11-23T15:12:26;9.50;65.60
27266;DHT22;14766;51.380;13.762;2022-11-23T15:14:55;9.50;65.70
27266;DHT22;14766;51.380;13.762;2022-11-23T15:17:25;9.50;65.80
27266;DHT22;14766;51.380;13.762;2022-11-23T15:19:57;9.40;65.80
27266;DHT22;14766;51.380;13.762;2022-11-23T15:22:25;9.40;65.90
27266;DHT22;14766;51.380;13.762;2022-11-23T15:24:54;9.30;66.00
27266;DHT22;14766;51.380;13.762;2022-11-23T15:27:31;9.30;65.90
27266;DHT22;14766;51.380;13.762;2022-11-23T15:29:59;9.20;65.90
27266;DHT22;14766;51.380;13.762;2022-11-23T15:32:31;9.20;66.00
27266;DHT22;14766;51.380;13.762;2022-11-23T15:35:06;9.10;66.00
27266;DHT22;14766;51.380;13.762;2022-11-23T15:37:42;9.10;66.10
27266;DHT22;14766;51.380;13.762;2022-11-23T15:40:16;9.00;66.10
27266;DHT22;14766;51.380;13.762;2022-11-23T15:42:47;9.00;66.10
27266;DHT22;14766;51.380;13.762;2022-11-23T15:48:17;8.90;66.20
27266;DHT22;14766;51.380;13.762;2022-11-23T15:50:51;8.80;66.30
27266;DHT22;14766;51.380;13.762;2022-11-23T15:53:23;8.80;66.60
27266;DHT22;14766;51.380;13.762;2022-11-23T15:55:52;8.70;66.80
27266;DHT22;14766;51.380;13.762;2022-11-23T15:58:20;8.70;67.20
27266;DHT22;14766;51.380;13.762;2022-11-23T16:00:55;8.60;67.10
27266;DHT22;14766;51.380;13.762;2022-11-23T16:03:39;8.60;67.10
27266;DHT22;14766;51.380;13.762;2022-11-23T16:06:25;8.50;67.10
27266;DHT22;14766;51.380;13.762;2022-11-23T16:08:54;8.50;67.20
27266;DHT22;14766;51.380;13.762;2022-11-23T16:11:31;8.50;67.80
27266;DHT22;14766;51.380;13.762;2022-11-23T16:16:37;8.50;67.30
27266;DHT22;14766;51.380;13.762;2022-11-23T16:19:27;8.40;67.30
27266;DHT22;14766;51.380;13.762;2022-11-23T16:22:00;8.40;67.30
27266;DHT22;14766;51.380;13.762;2022-11-23T16:24:30;8.30;67.20
27266;DHT22;14766;51.380;13.762;2022-11-23T16:27:01;8.30;67.20
27266;DHT22;14766;51.380;13.762;2022-11-23T16:29:37;8.30;67.20
27266;DHT22;14766;51.380;13.762;2022-11-23T16:32:27;8.30;67.20
27266;DHT22;14766;51.380;13.762;2022-11-23T16:34:57;8.30;67.30
27266;DHT22;14766;51.380;13.762;2022-11-23T16:37:30;8.20;67.20
27266;DHT22;14766;51.380;13.762;2022-11-23T16:39:58;8.20;67.20
27266;DHT22;14766;51.380;13.762;2022-11-23T16:42:26;8.20;67.10
27266;DHT22;14766;51.380;13.762;2022-11-23T16:44:53;8.20;66.90
27266;DHT22;14766;51.380;13.762;2022-11-23T16:47:25;8.20;66.70
27266;DHT22;14766;51.380;13.762;2022-11-23T16:49:52;8.10;66.70
27266;DHT22;14766;51.380;13.762;2022-11-23T16:52:20;8.10;66.60
27266;DHT22;14766;51.380;13.762;2022-11-23T16:54:49;8.00;66.60
27266;DHT22;14766;51.380;13.762;2022-11-23T16:59:50;8.00;66.80
27266;DHT22;14766;51.380;13.762;2022-11-23T17:02:17;7.90;66.80
27266;DHT22;14766;51.380;13.762;2022-11-23T17:04:45;7.90;66.90
27266;DHT22;14766;51.380;13.762;2022-11-23T17:07:12;7.90;66.90
27266;DHT22;14766;51.380;13.762;2022-11-23T17:09:39;7.90;67.00
27266;DHT22;14766;51.380;13.762;2022-11-23T17:12:13;7.80;66.80
27266;DHT22;14766;51.380;13.762;2022-11-23T17:14:47;7.80;66.80
27266;DHT22;14766;51.380;13.762;2022-11-23T17:17:18;7.80;66.80
27266;DHT22;14766;51.380;13.762;2022-11-23T17:19:47;7.70;66.70
27266;DHT22;14766;51.380;13.762;2022-11-23T17:22:16;7.70;66.80
27266;DHT22;14766;51.380;13.762;2022-11-23T17:24:45;7.70;66.80
27266;DHT22;14766;51.380;13.762;2022-11-23T17:27:15;7.60;66.80
27266;DHT22;14766;51.380;13.762;2022-11-23T17:29:44;7.60;67.00
27266;DHT22;14766;51.380;13.762;2022-11-23T17:32:13;7.60;67.10
27266;DHT22;14766;51.380;13.762;2022-11-23T17:34:40;7.60;67.30
27266;DHT22;14766;51.380;13.762;2022-11-23T17:37:15;7.60;67.40
27266;DHT22;14766;51.380;13.762;2022-11-23T17:39:43;7.50;67.20
27266;DHT22;14766;51.380;13.762;2022-11-23T17:42:10;7.50;67.30
27266;DHT22;14766;51.380;13.762;2022-11-23T17:44:38;7.50;67.30
27266;DHT22;14766;51.380;13.762;2022-11-23T17:47:06;7.50;67.20
27266;DHT22;14766;51.380;13.762;2022-11-23T17:49:41;7.50;67.50
27266;DHT22;14766;51.380;13.762;2022-11-23T17:52:10;7.50;67.50
27266;DHT22;14766;51.380;13.762;2022-11-23T17:54:38;7.40;67.40
27266;DHT22;14766;51.380;13.762;2022-11-23T17:57:05;7.40;67.30
27266;DHT22;14766;51.380;13.762;2022-11-23T17:59:32;7.40;67.20
27266;DHT22;14766;51.380;13.762;2022-11-23T18:02:00;7.40;67.30
27266;DHT22;14766;51.380;13.762;2022-11-23T18:04:27;7.40;67.30